createdAt,value
2023-03-10T00:01:22.012Z,16.23
2023-03-10T00:06:27.693Z,14.90
2023-03-10T00:11:30.537Z,15.38
2023-03-10T00:16:34.803Z,15.40
2023-03-10T00:21:37.606Z,18.45
2023-03-10T00:26:40.465Z,17.83
2023-03-10T00:31:45.103Z,15.80
2023-03-10T00:36:47.884Z,16.50
2023-03-10T00:41:50.918Z,15.60
2023-03-10T00:46:55.396Z,16.33
2023-03-10T00:51:58.208Z,15.68
2023-03-10T00:57:00.980Z,14.52
2023-03-10T01:02:07.569Z,16.55
2023-03-10T01:07:10.608Z,16.38
2023-03-10T01:12:13.659Z,14.95
2023-03-10T01:17:17.848Z,17.70
2023-03-10T01:22:20.762Z,19.33
2023-03-10T01:27:23.632Z,17.75
2023-03-10T01:32:27.877Z,17.58
2023-03-10T01:37:30.682Z,18.10
2023-03-10T01:42:33.528Z,18.80
2023-03-10T01:47:37.777Z,17.75
2023-03-10T01:52:44.807Z,18.17
2023-03-10T01:57:52.560Z,16.90
2023-03-10T02:03:03.553Z,16.13
2023-03-10T02:08:07.755Z,14.25
2023-03-10T02:13:10.535Z,15.38
2023-03-10T02:18:16.635Z,15.80
2023-03-10T02:23:26.125Z,14.88
2023-03-10T02:28:30.691Z,15.43
2023-03-10T02:33:34.458Z,18.13
2023-03-10T02:38:37.335Z,17.92
2023-03-10T02:43:42.361Z,15.63
2023-03-10T02:48:55.380Z,15.60
2023-03-10T02:54:05.250Z,10.15
2023-03-10T02:59:10.957Z,9.40
2023-03-10T03:04:18.647Z,8.27
2023-03-10T03:09:23.070Z,6.60
2023-03-10T03:14:27.466Z,6.57
2023-03-10T03:19:30.517Z,5.70
2023-03-10T03:24:34.342Z,6.47
2023-03-10T03:29:39.816Z,6.15
2023-03-10T03:34:42.788Z,7.30
2023-03-10T03:39:45.826Z,8.48
2023-03-10T03:44:50.153Z,6.30
2023-03-10T03:49:53.435Z,10.15
2023-03-10T03:54:56.386Z,8.68
2023-03-10T04:00:00.731Z,11.52
2023-03-10T04:05:05.791Z,9.80
2023-03-10T04:10:10.862Z,11.65
2023-03-10T04:15:15.412Z,11.43
2023-03-10T04:20:18.529Z,9.77
2023-03-10T04:25:25.119Z,8.93
2023-03-10T04:30:30.034Z,8.73
2023-03-10T04:35:36.141Z,8.52
2023-03-10T04:40:39.083Z,8.75
2023-03-10T04:45:43.443Z,9.40
2023-03-10T04:50:46.520Z,9.68
2023-03-10T04:55:51.439Z,9.18
2023-03-10T05:01:03.304Z,8.85
2023-03-10T05:06:15.493Z,9.90
2023-03-10T05:11:20.770Z,9.23
2023-03-10T05:16:25.440Z,10.52
2023-03-10T05:21:29.962Z,10.35
2023-03-10T05:26:34.964Z,10.60
2023-03-10T05:31:40.928Z,9.70
2023-03-10T05:36:49.030Z,11.02
2023-03-10T05:41:53.045Z,9.88
2023-03-10T05:46:58.541Z,9.68
2023-03-10T05:52:01.527Z,10.02
2023-03-10T05:57:04.682Z,11.07
2023-03-10T06:02:10.147Z,9.93
2023-03-10T06:07:12.985Z,9.88
2023-03-10T06:12:15.791Z,9.52
2023-03-10T06:17:20.000Z,9.95
2023-03-10T06:22:22.790Z,9.57
2023-03-10T06:27:25.721Z,10.15
2023-03-10T06:32:29.887Z,9.25
2023-03-10T06:37:32.719Z,9.77
2023-03-10T06:42:35.526Z,10.30
2023-03-10T06:47:39.974Z,10.10
2023-03-10T06:52:43.198Z,10.13
2023-03-10T06:57:46.015Z,10.25
2023-03-10T07:02:50.110Z,9.45
2023-03-10T07:07:52.844Z,9.45
2023-03-10T07:12:58.843Z,9.82
2023-03-10T07:18:03.023Z,8.75
2023-03-10T07:23:05.743Z,7.30
2023-03-10T07:28:08.925Z,9.43
2023-03-10T07:33:13.070Z,13.60
2023-03-10T07:38:15.808Z,12.75
2023-03-10T07:43:18.576Z,10.00
2023-03-10T07:48:22.776Z,8.55
2023-03-10T07:53:25.721Z,6.18
2023-03-10T07:58:28.498Z,6.53
2023-03-10T08:03:34.106Z,7.22
2023-03-10T08:08:37.111Z,7.35
2023-03-10T08:13:40.419Z,7.65
2023-03-10T08:18:44.850Z,7.80
2023-03-10T08:23:47.719Z,7.97
2023-03-10T08:28:50.637Z,8.00
2023-03-10T08:33:57.742Z,9.88
2023-03-10T08:39:02.141Z,8.85
2023-03-10T08:44:05.181Z,9.98
2023-03-10T08:49:09.792Z,8.65
2023-03-10T08:54:15.329Z,10.23
2023-03-10T08:59:19.270Z,9.02
2023-03-10T09:04:23.557Z,8.43
2023-03-10T09:09:26.345Z,10.18
2023-03-10T09:14:29.094Z,9.38
2023-03-10T09:19:33.327Z,8.98
2023-03-10T09:24:36.149Z,8.65
2023-03-10T09:29:43.573Z,9.20
2023-03-10T09:34:47.892Z,8.52
2023-03-10T09:39:50.662Z,9.43
2023-03-10T09:45:04.144Z,9.15
2023-03-10T09:50:24.736Z,9.57
2023-03-10T09:55:30.295Z,16.70
2023-03-10T10:00:38.368Z,10.85
2023-03-10T10:05:42.980Z,12.27
2023-03-10T10:10:49.239Z,10.25
2023-03-10T10:16:18.184Z,11.05
2023-03-10T10:21:28.188Z,10.80
2023-03-10T10:26:33.504Z,11.35
2023-03-10T10:31:36.386Z,10.02
2023-03-10T10:36:51.991Z,7.70
2023-03-10T10:41:55.408Z,6.47
2023-03-10T10:46:58.818Z,6.40
2023-03-10T10:52:05.593Z,5.97
2023-03-10T10:57:18.646Z,6.30
2023-03-10T11:02:25.422Z,7.22
2023-03-10T11:07:29.625Z,5.07
2023-03-10T11:12:36.932Z,4.82
2023-03-10T11:17:44.772Z,5.07
2023-03-10T11:22:53.403Z,6.40
2023-03-10T11:28:05.500Z,4.47
2023-03-10T11:33:21.133Z,5.32
2023-03-10T11:38:38.193Z,5.15
2023-03-10T11:43:53.897Z,4.45
2023-03-10T11:49:05.230Z,4.57
2023-03-10T11:54:16.460Z,5.15
2023-03-10T11:59:22.953Z,4.03
2023-03-10T12:04:31.836Z,4.00
2023-03-10T12:09:42.222Z,4.80
2023-03-10T12:14:47.311Z,3.95
2023-03-10T12:20:21.268Z,4.30
2023-03-10T12:25:45.155Z,4.93
2023-03-10T12:30:50.973Z,5.40
2023-03-10T12:35:56.226Z,5.95
2023-03-10T12:41:01.880Z,4.97
2023-03-10T12:46:05.699Z,4.85
2023-03-10T12:51:13.932Z,5.22
2023-03-10T12:56:23.856Z,4.78
2023-03-10T13:01:33.227Z,5.68
2023-03-10T13:06:39.699Z,4.50
2023-03-10T13:11:46.030Z,5.65
2023-03-10T13:16:54.546Z,6.30
2023-03-10T13:21:57.737Z,5.00
2023-03-10T13:27:07.158Z,5.30
2023-03-10T13:32:19.636Z,5.03
2023-03-10T13:37:22.588Z,5.20
2023-03-10T13:42:42.763Z,4.95
2023-03-10T13:47:47.293Z,6.20
2023-03-10T13:52:54.089Z,5.28
2023-03-10T13:57:59.471Z,5.18
2023-03-10T14:03:02.664Z,5.10
2023-03-10T14:08:06.562Z,5.40
2023-03-10T14:13:40.173Z,5.40
2023-03-10T14:18:44.042Z,5.75
2023-03-10T14:23:46.881Z,5.75
2023-03-10T14:28:51.032Z,5.10
2023-03-10T14:33:54.902Z,5.30
2023-03-10T14:38:57.672Z,6.70
2023-03-10T14:44:02.600Z,6.53
2023-03-10T14:49:06.784Z,7.30
2023-03-10T14:54:17.795Z,6.95
2023-03-10T14:59:21.917Z,7.93
2023-03-10T15:04:24.833Z,6.30
2023-03-10T15:09:27.616Z,8.15
2023-03-10T15:14:31.737Z,8.43
2023-03-10T15:19:34.507Z,9.93
2023-03-10T15:24:37.247Z,8.70
2023-03-10T15:29:41.427Z,8.95
2023-03-10T15:34:44.201Z,9.88
2023-03-10T15:39:46.995Z,8.70
2023-03-10T15:44:51.749Z,10.07
2023-03-10T15:49:54.759Z,10.32
2023-03-10T15:54:57.937Z,9.77
2023-03-10T16:00:02.128Z,8.38
2023-03-10T16:05:08.311Z,8.10
2023-03-10T16:10:13.084Z,8.00
2023-03-10T16:15:18.453Z,8.43
2023-03-10T16:20:21.550Z,7.05
2023-03-10T16:25:24.323Z,8.75
2023-03-10T16:30:28.561Z,9.30
2023-03-10T16:35:31.521Z,7.60
2023-03-10T16:40:34.296Z,7.97
2023-03-10T16:45:38.509Z,8.70
2023-03-10T16:50:41.330Z,7.50
2023-03-10T16:55:44.122Z,7.82
2023-03-10T17:00:48.282Z,7.90
2023-03-10T17:05:53.697Z,8.50
2023-03-10T17:10:56.493Z,7.03
2023-03-10T17:16:01.172Z,8.32
2023-03-10T17:21:12.320Z,7.13
2023-03-10T17:26:16.024Z,6.32
2023-03-10T17:31:23.593Z,10.50
2023-03-10T17:36:27.118Z,6.10
2023-03-10T17:41:30.921Z,7.03
2023-03-10T17:46:35.117Z,6.65
2023-03-10T17:51:39.199Z,6.70
2023-03-10T17:56:43.275Z,7.68
2023-03-10T18:01:49.187Z,5.10
2023-03-10T18:06:52.024Z,6.93
2023-03-10T18:11:57.135Z,5.15
2023-03-10T18:17:03.080Z,6.35
2023-03-10T18:22:06.616Z,6.28
2023-03-10T18:27:09.419Z,6.03
2023-03-10T18:32:13.835Z,5.97
2023-03-10T18:37:16.635Z,4.88
2023-03-10T18:42:21.731Z,5.72
2023-03-10T18:47:25.888Z,4.65
2023-03-10T18:52:28.675Z,5.65
2023-03-10T18:57:32.517Z,6.45
2023-03-10T19:02:36.710Z,8.43
2023-03-10T19:07:39.740Z,9.10
2023-03-10T19:12:43.134Z,11.52
2023-03-10T19:17:47.321Z,11.65
2023-03-10T19:22:51.557Z,13.13
2023-03-10T19:27:54.496Z,12.05
2023-03-10T19:32:58.691Z,14.20
2023-03-10T19:38:01.469Z,13.13
2023-03-10T19:43:04.482Z,11.32
2023-03-10T19:48:08.877Z,12.70
2023-03-10T19:53:11.721Z,12.95
2023-03-10T19:58:14.491Z,13.00
2023-03-10T20:03:19.328Z,13.57
2023-03-10T20:08:22.982Z,13.85
2023-03-10T20:13:25.752Z,14.13
2023-03-10T20:18:29.976Z,12.90
2023-03-10T20:23:33.444Z,15.18
2023-03-10T20:28:39.574Z,13.10
2023-03-10T20:33:43.849Z,14.43
2023-03-10T20:38:47.610Z,13.85
2023-03-10T20:43:51.204Z,14.70
2023-03-10T20:48:55.506Z,15.48
2023-03-10T20:53:58.517Z,15.32
2023-03-10T20:59:01.819Z,17.92
2023-03-10T21:04:06.534Z,16.42
2023-03-10T21:09:09.387Z,17.02
2023-03-10T21:14:12.159Z,14.98
2023-03-10T21:19:16.728Z,14.43
2023-03-10T21:24:19.546Z,15.90
2023-03-10T21:29:22.372Z,15.77
2023-03-10T21:34:26.587Z,16.23
2023-03-10T21:39:29.447Z,14.43
2023-03-10T21:44:32.335Z,11.00
2023-03-10T21:49:37.294Z,14.07
2023-03-10T21:54:40.690Z,14.45
2023-03-10T21:59:43.559Z,13.93
2023-03-10T22:04:47.814Z,9.93
2023-03-10T22:09:50.752Z,12.43
2023-03-10T22:14:57.438Z,11.60
2023-03-10T22:20:01.941Z,7.03
2023-03-10T22:25:05.078Z,10.63
2023-03-10T22:30:09.143Z,8.88
2023-03-10T22:35:13.881Z,10.00
2023-03-10T22:40:18.797Z,9.77
2023-03-10T22:45:24.291Z,9.05
2023-03-10T22:50:32.543Z,9.32
2023-03-10T22:55:38.206Z,6.95
2023-03-10T23:00:42.533Z,6.80
2023-03-10T23:05:47.001Z,7.20
2023-03-10T23:10:50.227Z,6.30
2023-03-10T23:15:53.410Z,5.10
2023-03-10T23:20:57.911Z,4.60
2023-03-10T23:26:01.096Z,4.82
2023-03-10T23:31:04.499Z,3.80
2023-03-10T23:36:11.663Z,4.85
2023-03-10T23:41:14.851Z,3.90
2023-03-10T23:46:17.778Z,4.20
2023-03-10T23:51:22.174Z,4.35
2023-03-10T23:56:24.979Z,4.65
